sensor_id;sensor_type;location;lat;lon;timestamp;P1;durP1;ratioP1;P2;durP2;ratioP2
21444;SDS011;10883;51.946;20.140;2022-12-29T00:02:12;17.00;;;7.60;;
21444;SDS011;10883;51.946;20.140;2022-12-29T00:04:38;14.13;;;7.18;;
21444;SDS011;10883;51.946;20.140;2022-12-29T00:07:05;14.30;;;6.13;;
21444;SDS011;10883;51.946;20.140;2022-12-29T00:09:31;13.25;;;6.70;;
21444;SDS011;10883;51.946;20.140;2022-12-29T00:11:58;11.70;;;6.32;;
21444;SDS011;10883;51.946;20.140;2022-12-29T00:14:24;12.43;;;6.68;;
21444;SDS011;10883;51.946;20.140;2022-12-29T00:17:09;13.18;;;5.68;;
21444;SDS011;10883;51.946;20.140;2022-12-29T00:19:35;10.27;;;5.45;;
21444;SDS011;10883;51.946;20.140;2022-12-29T00:22:20;15.35;;;7.15;;
21444;SDS011;10883;51.946;20.140;2022-12-29T00:25:04;28.25;;;9.65;;
21444;SDS011;10883;51.946;20.140;2022-12-29T00:27:51;55.72;;;18.85;;
21444;SDS011;10883;51.946;20.140;2022-12-29T00:30:35;23.67;;;10.23;;
21444;SDS011;10883;51.946;20.140;2022-12-29T00:33:21;14.07;;;7.00;;
21444;SDS011;10883;51.946;20.140;2022-12-29T00:38:45;12.77;;;6.30;;
21444;SDS011;10883;51.946;20.140;2022-12-29T00:41:33;15.63;;;5.70;;
21444;SDS011;10883;51.946;20.140;2022-12-29T00:44:17;13.18;;;6.15;;
21444;SDS011;10883;51.946;20.140;2022-12-29T00:46:43;14.05;;;5.90;;
21444;SDS011;10883;51.946;20.140;2022-12-29T00:49:09;14.73;;;6.20;;
21444;SDS011;10883;51.946;20.140;2022-12-29T00:51:59;17.33;;;6.30;;
21444;SDS011;10883;51.946;20.140;2022-12-29T00:54:31;11.75;;;5.65;;
21444;SDS011;10883;51.946;20.140;2022-12-29T00:56:58;11.18;;;5.63;;
21444;SDS011;10883;51.946;20.140;2022-12-29T00:59:24;18.23;;;5.80;;
21444;SDS011;10883;51.946;20.140;2022-12-29T01:01:51;11.57;;;5.75;;
21444;SDS011;10883;51.946;20.140;2022-12-29T01:04:18;12.07;;;5.85;;
21444;SDS011;10883;51.946;20.140;2022-12-29T01:06:44;12.63;;;5.57;;
21444;SDS011;10883;51.946;20.140;2022-12-29T01:09:10;13.25;;;6.30;;
21444;SDS011;10883;51.946;20.140;2022-12-29T01:11:55;17.88;;;7.75;;
21444;SDS011;10883;51.946;20.140;2022-12-29T01:14:21;22.83;;;7.57;;
21444;SDS011;10883;51.946;20.140;2022-12-29T01:16:47;19.10;;;6.50;;
21444;SDS011;10883;51.946;20.140;2022-12-29T01:19:14;13.52;;;5.55;;
21444;SDS011;10883;51.946;20.140;2022-12-29T01:21:41;13.90;;;6.10;;
21444;SDS011;10883;51.946;20.140;2022-12-29T01:24:06;11.60;;;5.22;;
21444;SDS011;10883;51.946;20.140;2022-12-29T01:26:32;9.40;;;4.82;;
21444;SDS011;10883;51.946;20.140;2022-12-29T01:28:58;11.50;;;5.03;;
21444;SDS011;10883;51.946;20.140;2022-12-29T01:31:24;9.55;;;4.57;;
21444;SDS011;10883;51.946;20.140;2022-12-29T01:33:53;15.68;;;6.35;;
21444;SDS011;10883;51.946;20.140;2022-12-29T01:36:19;17.30;;;5.85;;
21444;SDS011;10883;51.946;20.140;2022-12-29T01:38:45;26.58;;;8.98;;
21444;SDS011;10883;51.946;20.140;2022-12-29T01:41:12;15.82;;;5.90;;
21444;SDS011;10883;51.946;20.140;2022-12-29T01:49:20;11.45;;;4.50;;
21444;SDS011;10883;51.946;20.140;2022-12-29T01:52:07;12.88;;;5.53;;
21444;SDS011;10883;51.946;20.140;2022-12-29T01:54:42;27.88;;;9.23;;
21444;SDS011;10883;51.946;20.140;2022-12-29T01:57:15;13.63;;;5.53;;
21444;SDS011;10883;51.946;20.140;2022-12-29T01:59:46;17.27;;;5.30;;
21444;SDS011;10883;51.946;20.140;2022-12-29T02:02:33;10.27;;;4.30;;
21444;SDS011;10883;51.946;20.140;2022-12-29T02:05:01;10.88;;;4.78;;
21444;SDS011;10883;51.946;20.140;2022-12-29T02:07:34;9.38;;;4.07;;
21444;SDS011;10883;51.946;20.140;2022-12-29T02:10:00;11.32;;;4.70;;
21444;SDS011;10883;51.946;20.140;2022-12-29T02:12:27;8.98;;;4.13;;
21444;SDS011;10883;51.946;20.140;2022-12-29T02:14:54;13.48;;;4.35;;
21444;SDS011;10883;51.946;20.140;2022-12-29T02:31:29;9.90;;;4.07;;
21444;SDS011;10883;51.946;20.140;2022-12-29T02:36:45;8.70;;;3.85;;
21444;SDS011;10883;51.946;20.140;2022-12-29T02:44:42;5.45;;;3.58;;
21444;SDS011;10883;51.946;20.140;2022-12-29T02:50:04;6.32;;;3.30;;
21444;SDS011;10883;51.946;20.140;2022-12-29T02:52:32;7.50;;;3.88;;
21444;SDS011;10883;51.946;20.140;2022-12-29T02:55:01;6.18;;;3.25;;
21444;SDS011;10883;51.946;20.140;2022-12-29T02:57:32;7.38;;;3.58;;
21444;SDS011;10883;51.946;20.140;2022-12-29T03:00:07;6.65;;;3.17;;
21444;SDS011;10883;51.946;20.140;2022-12-29T03:07:43;9.30;;;4.90;;
21444;SDS011;10883;51.946;20.140;2022-12-29T03:10:25;7.13;;;3.63;;
21444;SDS011;10883;51.946;20.140;2022-12-29T03:15:53;9.30;;;3.35;;
21444;SDS011;10883;51.946;20.140;2022-12-29T03:24:18;7.60;;;3.55;;
21444;SDS011;10883;51.946;20.140;2022-12-29T03:26:47;6.28;;;3.00;;
21444;SDS011;10883;51.946;20.140;2022-12-29T03:29:15;6.60;;;3.58;;
21444;SDS011;10883;51.946;20.140;2022-12-29T03:31:43;6.22;;;3.35;;
21444;SDS011;10883;51.946;20.140;2022-12-29T03:34:11;8.20;;;3.90;;
21444;SDS011;10883;51.946;20.140;2022-12-29T03:36:47;7.18;;;3.17;;
21444;SDS011;10883;51.946;20.140;2022-12-29T03:39:17;4.63;;;2.95;;
21444;SDS011;10883;51.946;20.140;2022-12-29T03:41:45;7.20;;;3.60;;
21444;SDS011;10883;51.946;20.140;2022-12-29T03:44:15;5.60;;;3.20;;
21444;SDS011;10883;51.946;20.140;2022-12-29T03:46:41;6.90;;;3.42;;
21444;SDS011;10883;51.946;20.140;2022-12-29T03:49:06;8.20;;;4.20;;
21444;SDS011;10883;51.946;20.140;2022-12-29T03:51:33;6.20;;;3.55;;
21444;SDS011;10883;51.946;20.140;2022-12-29T03:53:58;6.40;;;3.33;;
21444;SDS011;10883;51.946;20.140;2022-12-29T03:56:24;7.28;;;3.75;;
21444;SDS011;10883;51.946;20.140;2022-12-29T03:58:50;5.55;;;3.15;;
21444;SDS011;10883;51.946;20.140;2022-12-29T04:01:16;7.03;;;3.60;;
21444;SDS011;10883;51.946;20.140;2022-12-29T04:03:42;6.47;;;3.60;;
21444;SDS011;10883;51.946;20.140;2022-12-29T04:06:07;7.65;;;4.07;;
21444;SDS011;10883;51.946;20.140;2022-12-29T04:08:33;6.63;;;4.22;;
21444;SDS011;10883;51.946;20.140;2022-12-29T04:10:59;7.18;;;4.03;;
21444;SDS011;10883;51.946;20.140;2022-12-29T04:13:25;10.52;;;4.45;;
21444;SDS011;10883;51.946;20.140;2022-12-29T04:15:50;9.88;;;3.55;;
21444;SDS011;10883;51.946;20.140;2022-12-29T04:18:16;10.05;;;4.18;;
21444;SDS011;10883;51.946;20.140;2022-12-29T04:20:42;8.27;;;4.55;;
21444;SDS011;10883;51.946;20.140;2022-12-29T04:23:24;9.40;;;4.85;;
21444;SDS011;10883;51.946;20.140;2022-12-29T04:25:51;8.60;;;4.65;;
21444;SDS011;10883;51.946;20.140;2022-12-29T04:28:16;9.95;;;4.90;;
21444;SDS011;10883;51.946;20.140;2022-12-29T04:30:42;12.05;;;5.20;;
21444;SDS011;10883;51.946;20.140;2022-12-29T04:33:08;9.43;;;4.65;;
21444;SDS011;10883;51.946;20.140;2022-12-29T04:35:34;9.40;;;4.65;;
21444;SDS011;10883;51.946;20.140;2022-12-29T04:38:00;6.72;;;3.85;;
21444;SDS011;10883;51.946;20.140;2022-12-29T04:40:26;10.50;;;4.20;;
21444;SDS011;10883;51.946;20.140;2022-12-29T04:42:51;7.85;;;4.10;;
21444;SDS011;10883;51.946;20.140;2022-12-29T04:45:17;9.75;;;4.90;;
21444;SDS011;10883;51.946;20.140;2022-12-29T04:47:43;12.80;;;5.30;;
21444;SDS011;10883;51.946;20.140;2022-12-29T04:50:09;10.98;;;5.15;;
21444;SDS011;10883;51.946;20.140;2022-12-29T04:52:35;11.32;;;4.93;;
21444;SDS011;10883;51.946;20.140;2022-12-29T04:55:01;9.23;;;4.03;;
21444;SDS011;10883;51.946;20.140;2022-12-29T04:57:27;9.43;;;4.47;;
21444;SDS011;10883;51.946;20.140;2022-12-29T04:59:52;9.13;;;4.75;;
21444;SDS011;10883;51.946;20.140;2022-12-29T05:02:18;10.55;;;5.28;;
21444;SDS011;10883;51.946;20.140;2022-12-29T05:04:44;11.35;;;5.07;;
21444;SDS011;10883;51.946;20.140;2022-12-29T05:07:10;10.23;;;4.85;;
21444;SDS011;10883;51.946;20.140;2022-12-29T05:09:36;10.60;;;4.90;;
21444;SDS011;10883;51.946;20.140;2022-12-29T05:12:02;10.18;;;5.20;;
21444;SDS011;10883;51.946;20.140;2022-12-29T05:14:28;13.32;;;6.10;;
21444;SDS011;10883;51.946;20.140;2022-12-29T05:16:54;12.15;;;5.03;;
21444;SDS011;10883;51.946;20.140;2022-12-29T05:19:19;15.07;;;5.65;;
21444;SDS011;10883;51.946;20.140;2022-12-29T05:21:45;15.32;;;6.72;;
21444;SDS011;10883;51.946;20.140;2022-12-29T05:24:11;14.23;;;6.93;;
21444;SDS011;10883;51.946;20.140;2022-12-29T05:26:37;19.17;;;6.75;;
21444;SDS011;10883;51.946;20.140;2022-12-29T05:29:02;14.68;;;5.85;;
21444;SDS011;10883;51.946;20.140;2022-12-29T05:31:28;11.43;;;4.90;;
21444;SDS011;10883;51.946;20.140;2022-12-29T05:33:54;12.90;;;5.60;;
21444;SDS011;10883;51.946;20.140;2022-12-29T05:36:20;24.20;;;8.57;;
21444;SDS011;10883;51.946;20.140;2022-12-29T05:38:45;21.38;;;9.98;;
21444;SDS011;10883;51.946;20.140;2022-12-29T05:41:11;15.98;;;7.40;;
21444;SDS011;10883;51.946;20.140;2022-12-29T05:43:37;13.32;;;5.45;;
21444;SDS011;10883;51.946;20.140;2022-12-29T05:46:03;16.63;;;7.63;;
21444;SDS011;10883;51.946;20.140;2022-12-29T05:48:29;18.95;;;6.97;;
21444;SDS011;10883;51.946;20.140;2022-12-29T05:50:55;22.63;;;10.02;;
21444;SDS011;10883;51.946;20.140;2022-12-29T05:53:20;14.75;;;6.40;;
21444;SDS011;10883;51.946;20.140;2022-12-29T05:55:47;19.45;;;7.13;;
21444;SDS011;10883;51.946;20.140;2022-12-29T05:58:13;17.80;;;7.05;;
21444;SDS011;10883;51.946;20.140;2022-12-29T06:00:39;17.90;;;8.15;;
21444;SDS011;10883;51.946;20.140;2022-12-29T06:03:05;20.13;;;9.15;;
21444;SDS011;10883;51.946;20.140;2022-12-29T06:05:31;18.13;;;8.23;;
21444;SDS011;10883;51.946;20.140;2022-12-29T06:07:56;15.20;;;7.22;;
21444;SDS011;10883;51.946;20.140;2022-12-29T06:10:22;11.57;;;5.90;;
21444;SDS011;10883;51.946;20.140;2022-12-29T06:12:48;8.65;;;5.30;;
21444;SDS011;10883;51.946;20.140;2022-12-29T06:15:14;9.85;;;5.82;;
21444;SDS011;10883;51.946;20.140;2022-12-29T06:17:40;10.38;;;4.78;;
21444;SDS011;10883;51.946;20.140;2022-12-29T06:20:06;12.07;;;5.10;;
21444;SDS011;10883;51.946;20.140;2022-12-29T06:22:33;14.07;;;6.10;;
21444;SDS011;10883;51.946;20.140;2022-12-29T06:24:58;12.07;;;4.80;;
21444;SDS011;10883;51.946;20.140;2022-12-29T06:27:24;11.57;;;6.07;;
21444;SDS011;10883;51.946;20.140;2022-12-29T06:29:50;9.80;;;4.32;;
21444;SDS011;10883;51.946;20.140;2022-12-29T06:32:16;8.60;;;4.68;;
21444;SDS011;10883;51.946;20.140;2022-12-29T06:34:42;8.30;;;4.45;;
21444;SDS011;10883;51.946;20.140;2022-12-29T06:37:09;15.93;;;5.72;;
21444;SDS011;10883;51.946;20.140;2022-12-29T06:39:35;12.77;;;6.38;;
21444;SDS011;10883;51.946;20.140;2022-12-29T06:42:01;12.30;;;5.80;;
21444;SDS011;10883;51.946;20.140;2022-12-29T06:44:27;12.73;;;5.43;;
21444;SDS011;10883;51.946;20.140;2022-12-29T06:46:53;29.88;;;13.05;;
21444;SDS011;10883;51.946;20.140;2022-12-29T06:49:19;15.88;;;6.88;;
21444;SDS011;10883;51.946;20.140;2022-12-29T06:51:45;11.02;;;4.22;;
21444;SDS011;10883;51.946;20.140;2022-12-29T06:54:11;14.43;;;6.00;;
21444;SDS011;10883;51.946;20.140;2022-12-29T06:56:37;10.43;;;5.20;;
21444;SDS011;10883;51.946;20.140;2022-12-29T06:59:03;18.27;;;6.32;;
21444;SDS011;10883;51.946;20.140;2022-12-29T07:01:29;13.75;;;5.13;;
21444;SDS011;10883;51.946;20.140;2022-12-29T07:03:55;12.63;;;5.22;;
21444;SDS011;10883;51.946;20.140;2022-12-29T07:06:21;14.95;;;6.15;;
21444;SDS011;10883;51.946;20.140;2022-12-29T07:08:47;21.00;;;7.00;;
21444;SDS011;10883;51.946;20.140;2022-12-29T07:11:12;15.88;;;5.93;;
21444;SDS011;10883;51.946;20.140;2022-12-29T07:13:38;11.43;;;5.53;;
21444;SDS011;10883;51.946;20.140;2022-12-29T07:16:07;11.65;;;4.95;;
21444;SDS011;10883;51.946;20.140;2022-12-29T07:18:34;13.90;;;5.53;;
21444;SDS011;10883;51.946;20.140;2022-12-29T07:21:00;14.93;;;5.75;;
21444;SDS011;10883;51.946;20.140;2022-12-29T07:23:27;12.93;;;5.63;;
21444;SDS011;10883;51.946;20.140;2022-12-29T07:26:06;13.32;;;5.97;;
21444;SDS011;10883;51.946;20.140;2022-12-29T07:28:36;16.60;;;6.93;;
21444;SDS011;10883;51.946;20.140;2022-12-29T07:31:03;12.10;;;6.10;;
21444;SDS011;10883;51.946;20.140;2022-12-29T07:33:29;10.93;;;5.57;;
21444;SDS011;10883;51.946;20.140;2022-12-29T07:35:56;10.00;;;5.22;;
21444;SDS011;10883;51.946;20.140;2022-12-29T07:38:22;12.05;;;5.90;;
21444;SDS011;10883;51.946;20.140;2022-12-29T07:40:47;10.02;;;5.72;;
21444;SDS011;10883;51.946;20.140;2022-12-29T07:43:13;9.88;;;4.65;;
21444;SDS011;10883;51.946;20.140;2022-12-29T07:45:39;11.98;;;5.60;;
21444;SDS011;10883;51.946;20.140;2022-12-29T07:48:05;9.43;;;4.50;;
21444;SDS011;10883;51.946;20.140;2022-12-29T07:50:34;9.82;;;5.10;;
21444;SDS011;10883;51.946;20.140;2022-12-29T07:53:01;11.10;;;6.10;;
21444;SDS011;10883;51.946;20.140;2022-12-29T07:55:27;20.10;;;10.68;;
21444;SDS011;10883;51.946;20.140;2022-12-29T07:57:54;10.93;;;6.32;;
21444;SDS011;10883;51.946;20.140;2022-12-29T08:00:20;11.52;;;5.60;;
21444;SDS011;10883;51.946;20.140;2022-12-29T08:02:47;11.35;;;5.75;;
21444;SDS011;10883;51.946;20.140;2022-12-29T08:05:13;10.60;;;4.55;;
21444;SDS011;10883;51.946;20.140;2022-12-29T08:07:38;12.15;;;4.95;;
21444;SDS011;10883;51.946;20.140;2022-12-29T08:10:04;10.05;;;5.18;;
21444;SDS011;10883;51.946;20.140;2022-12-29T08:12:30;10.95;;;5.70;;
21444;SDS011;10883;51.946;20.140;2022-12-29T08:14:56;14.35;;;6.82;;
21444;SDS011;10883;51.946;20.140;2022-12-29T08:17:22;17.27;;;6.78;;
21444;SDS011;10883;51.946;20.140;2022-12-29T08:19:48;13.07;;;5.60;;
21444;SDS011;10883;51.946;20.140;2022-12-29T08:22:14;14.70;;;6.60;;
21444;SDS011;10883;51.946;20.140;2022-12-29T08:24:40;7.82;;;4.20;;
21444;SDS011;10883;51.946;20.140;2022-12-29T08:27:06;7.20;;;4.25;;
21444;SDS011;10883;51.946;20.140;2022-12-29T08:29:31;9.48;;;4.57;;
21444;SDS011;10883;51.946;20.140;2022-12-29T08:31:57;7.60;;;4.05;;
21444;SDS011;10883;51.946;20.140;2022-12-29T08:34:23;7.75;;;4.43;;
21444;SDS011;10883;51.946;20.140;2022-12-29T08:36:49;7.00;;;4.07;;
21444;SDS011;10883;51.946;20.140;2022-12-29T08:39:14;13.00;;;5.18;;
21444;SDS011;10883;51.946;20.140;2022-12-29T08:41:41;9.30;;;4.63;;
21444;SDS011;10883;51.946;20.140;2022-12-29T08:44:06;13.25;;;5.93;;
21444;SDS011;10883;51.946;20.140;2022-12-29T08:46:32;15.10;;;5.40;;
21444;SDS011;10883;51.946;20.140;2022-12-29T08:48:58;7.32;;;3.95;;
21444;SDS011;10883;51.946;20.140;2022-12-29T08:51:24;9.70;;;4.57;;
21444;SDS011;10883;51.946;20.140;2022-12-29T08:53:49;9.27;;;4.30;;
21444;SDS011;10883;51.946;20.140;2022-12-29T08:56:15;10.90;;;5.20;;
21444;SDS011;10883;51.946;20.140;2022-12-29T08:58:41;8.32;;;4.78;;
21444;SDS011;10883;51.946;20.140;2022-12-29T09:01:07;11.52;;;5.47;;
21444;SDS011;10883;51.946;20.140;2022-12-29T09:03:34;10.57;;;5.53;;
21444;SDS011;10883;51.946;20.140;2022-12-29T09:06:00;8.27;;;4.82;;
21444;SDS011;10883;51.946;20.140;2022-12-29T09:08:25;11.40;;;5.65;;
21444;SDS011;10883;51.946;20.140;2022-12-29T09:10:51;17.35;;;6.10;;
21444;SDS011;10883;51.946;20.140;2022-12-29T09:13:17;11.35;;;5.55;;
21444;SDS011;10883;51.946;20.140;2022-12-29T09:15:43;7.63;;;4.57;;
21444;SDS011;10883;51.946;20.140;2022-12-29T09:18:10;9.55;;;5.30;;
21444;SDS011;10883;51.946;20.140;2022-12-29T09:20:36;12.00;;;6.97;;
21444;SDS011;10883;51.946;20.140;2022-12-29T09:23:03;11.32;;;6.30;;
21444;SDS011;10883;51.946;20.140;2022-12-29T09:25:31;10.77;;;5.20;;
21444;SDS011;10883;51.946;20.140;2022-12-29T09:27:57;13.20;;;7.15;;
21444;SDS011;10883;51.946;20.140;2022-12-29T09:30:23;20.98;;;8.60;;
21444;SDS011;10883;51.946;20.140;2022-12-29T09:32:49;21.00;;;8.63;;
21444;SDS011;10883;51.946;20.140;2022-12-29T09:35:16;21.92;;;8.98;;
21444;SDS011;10883;51.946;20.140;2022-12-29T09:37:42;19.63;;;9.45;;
21444;SDS011;10883;51.946;20.140;2022-12-29T09:40:27;19.50;;;8.05;;
21444;SDS011;10883;51.946;20.140;2022-12-29T09:45:42;11.85;;;6.55;;
21444;SDS011;10883;51.946;20.140;2022-12-29T09:48:15;10.15;;;4.93;;
21444;SDS011;10883;51.946;20.140;2022-12-29T09:50:46;11.05;;;5.45;;
21444;SDS011;10883;51.946;20.140;2022-12-29T09:56:05;9.80;;;5.63;;
21444;SDS011;10883;51.946;20.140;2022-12-29T09:59:00;7.82;;;4.85;;
21444;SDS011;10883;51.946;20.140;2022-12-29T10:01:51;8.50;;;5.22;;
21444;SDS011;10883;51.946;20.140;2022-12-29T10:04:18;9.18;;;4.97;;
21444;SDS011;10883;51.946;20.140;2022-12-29T10:06:57;12.95;;;6.70;;
21444;SDS011;10883;51.946;20.140;2022-12-29T10:09:46;13.48;;;7.07;;
21444;SDS011;10883;51.946;20.140;2022-12-29T10:15:04;8.75;;;5.75;;
21444;SDS011;10883;51.946;20.140;2022-12-29T10:23:39;10.10;;;5.72;;
21444;SDS011;10883;51.946;20.140;2022-12-29T10:26:27;14.27;;;5.97;;
21444;SDS011;10883;51.946;20.140;2022-12-29T10:29:08;13.00;;;6.57;;
21444;SDS011;10883;51.946;20.140;2022-12-29T10:31:44;12.15;;;6.13;;
21444;SDS011;10883;51.946;20.140;2022-12-29T10:34:27;11.52;;;5.40;;
21444;SDS011;10883;51.946;20.140;2022-12-29T10:39:54;11.02;;;5.22;;
21444;SDS011;10883;51.946;20.140;2022-12-29T10:42:23;14.85;;;8.07;;
21444;SDS011;10883;51.946;20.140;2022-12-29T10:45:02;12.68;;;6.20;;
21444;SDS011;10883;51.946;20.140;2022-12-29T10:47:29;8.65;;;5.40;;
21444;SDS011;10883;51.946;20.140;2022-12-29T10:50:01;11.02;;;5.78;;
21444;SDS011;10883;51.946;20.140;2022-12-29T10:52:27;12.55;;;4.93;;
21444;SDS011;10883;51.946;20.140;2022-12-29T10:57:59;6.60;;;4.72;;
21444;SDS011;10883;51.946;20.140;2022-12-29T11:00:30;9.07;;;4.72;;
21444;SDS011;10883;51.946;20.140;2022-12-29T11:08:13;11.13;;;5.78;;
21444;SDS011;10883;51.946;20.140;2022-12-29T11:10:45;8.98;;;5.22;;
21444;SDS011;10883;51.946;20.140;2022-12-29T11:13:18;11.85;;;6.00;;
21444;SDS011;10883;51.946;20.140;2022-12-29T11:15:50;11.25;;;5.00;;
21444;SDS011;10883;51.946;20.140;2022-12-29T11:18:18;11.55;;;5.22;;
21444;SDS011;10883;51.946;20.140;2022-12-29T11:20:51;9.45;;;5.25;;
21444;SDS011;10883;51.946;20.140;2022-12-29T11:28:35;10.07;;;5.32;;
21444;SDS011;10883;51.946;20.140;2022-12-29T11:31:03;11.50;;;6.28;;
21444;SDS011;10883;51.946;20.140;2022-12-29T11:33:32;9.18;;;4.85;;
21444;SDS011;10883;51.946;20.140;2022-12-29T11:36:07;11.07;;;5.82;;
21444;SDS011;10883;51.946;20.140;2022-12-29T11:38:39;15.23;;;6.10;;
21444;SDS011;10883;51.946;20.140;2022-12-29T11:41:11;17.45;;;6.82;;
21444;SDS011;10883;51.946;20.140;2022-12-29T11:43:40;16.63;;;6.10;;
21444;SDS011;10883;51.946;20.140;2022-12-29T11:46:13;28.13;;;11.45;;
21444;SDS011;10883;51.946;20.140;2022-12-29T11:48:43;20.63;;;9.38;;
21444;SDS011;10883;51.946;20.140;2022-12-29T11:51:11;13.32;;;6.50;;
21444;SDS011;10883;51.946;20.140;2022-12-29T11:53:49;13.68;;;7.47;;
21444;SDS011;10883;51.946;20.140;2022-12-29T11:56:32;14.52;;;6.70;;
21444;SDS011;10883;51.946;20.140;2022-12-29T11:58:58;16.60;;;8.38;;
21444;SDS011;10883;51.946;20.140;2022-12-29T12:01:49;14.70;;;7.65;;
21444;SDS011;10883;51.946;20.140;2022-12-29T12:04:16;12.25;;;7.55;;
21444;SDS011;10883;51.946;20.140;2022-12-29T12:06:55;17.88;;;9.30;;
21444;SDS011;10883;51.946;20.140;2022-12-29T12:12:18;12.25;;;6.28;;
21444;SDS011;10883;51.946;20.140;2022-12-29T12:14:54;19.25;;;8.30;;
21444;SDS011;10883;51.946;20.140;2022-12-29T12:17:28;17.00;;;9.55;;
21444;SDS011;10883;51.946;20.140;2022-12-29T12:23:13;16.75;;;7.68;;
21444;SDS011;10883;51.946;20.140;2022-12-29T12:32:08;15.45;;;6.57;;
21444;SDS011;10883;51.946;20.140;2022-12-29T12:34:28;17.17;;;8.85;;
21444;SDS011;10883;51.946;20.140;2022-12-29T12:40:11;13.50;;;6.53;;
21444;SDS011;10883;51.946;20.140;2022-12-29T12:54:19;21.55;;;8.18;;
21444;SDS011;10883;51.946;20.140;2022-12-29T13:02:34;11.70;;;5.53;;
21444;SDS011;10883;51.946;20.140;2022-12-29T13:05:30;9.95;;;5.45;;
21444;SDS011;10883;51.946;20.140;2022-12-29T13:21:41;18.50;;;7.13;;
21444;SDS011;10883;51.946;20.140;2022-12-29T13:24:43;20.40;;;8.90;;
21444;SDS011;10883;51.946;20.140;2022-12-29T13:32:49;24.67;;;10.98;;
21444;SDS011;10883;51.946;20.140;2022-12-29T13:41:05;13.35;;;5.93;;
21444;SDS011;10883;51.946;20.140;2022-12-29T13:43:58;16.05;;;7.78;;
21444;SDS011;10883;51.946;20.140;2022-12-29T13:46:28;13.90;;;7.75;;
21444;SDS011;10883;51.946;20.140;2022-12-29T13:49:11;15.18;;;7.63;;
21444;SDS011;10883;51.946;20.140;2022-12-29T13:51:41;15.45;;;7.78;;
21444;SDS011;10883;51.946;20.140;2022-12-29T13:54:35;15.85;;;7.30;;
21444;SDS011;10883;51.946;20.140;2022-12-29T13:57:12;20.73;;;9.25;;
21444;SDS011;10883;51.946;20.140;2022-12-29T14:04:56;15.70;;;8.52;;
21444;SDS011;10883;51.946;20.140;2022-12-29T14:07:22;26.25;;;11.13;;
21444;SDS011;10883;51.946;20.140;2022-12-29T14:09:51;21.75;;;10.15;;
21444;SDS011;10883;51.946;20.140;2022-12-29T14:12:26;38.00;;;14.32;;
21444;SDS011;10883;51.946;20.140;2022-12-29T14:17:36;32.53;;;15.63;;
21444;SDS011;10883;51.946;20.140;2022-12-29T14:20:04;22.58;;;12.85;;
21444;SDS011;10883;51.946;20.140;2022-12-29T14:22:55;18.05;;;10.23;;
21444;SDS011;10883;51.946;20.140;2022-12-29T14:28:22;19.08;;;9.50;;
21444;SDS011;10883;51.946;20.140;2022-12-29T14:30:51;28.65;;;13.10;;
21444;SDS011;10883;51.946;20.140;2022-12-29T14:33:19;24.75;;;11.25;;
21444;SDS011;10883;51.946;20.140;2022-12-29T14:35:47;32.78;;;14.02;;
21444;SDS011;10883;51.946;20.140;2022-12-29T14:38:24;27.52;;;11.63;;
21444;SDS011;10883;51.946;20.140;2022-12-29T14:40:51;25.52;;;10.15;;
21444;SDS011;10883;51.946;20.140;2022-12-29T14:43:22;34.42;;;12.90;;
21444;SDS011;10883;51.946;20.140;2022-12-29T14:45:59;32.50;;;14.65;;
21444;SDS011;10883;51.946;20.140;2022-12-29T14:50:55;27.90;;;11.45;;
21444;SDS011;10883;51.946;20.140;2022-12-29T14:56:08;21.70;;;10.65;;
21444;SDS011;10883;51.946;20.140;2022-12-29T15:01:19;27.63;;;11.65;;
21444;SDS011;10883;51.946;20.140;2022-12-29T15:03:57;28.17;;;13.50;;
21444;SDS011;10883;51.946;20.140;2022-12-29T15:06:27;25.27;;;11.95;;
21444;SDS011;10883;51.946;20.140;2022-12-29T15:09:00;18.55;;;7.85;;
21444;SDS011;10883;51.946;20.140;2022-12-29T15:14:01;22.42;;;10.98;;
21444;SDS011;10883;51.946;20.140;2022-12-29T15:18:57;23.48;;;9.63;;
21444;SDS011;10883;51.946;20.140;2022-12-29T15:21:25;20.30;;;9.38;;
21444;SDS011;10883;51.946;20.140;2022-12-29T15:23:52;22.98;;;10.55;;
21444;SDS011;10883;51.946;20.140;2022-12-29T15:26:18;26.02;;;9.90;;
21444;SDS011;10883;51.946;20.140;2022-12-29T15:28:48;19.40;;;8.95;;
21444;SDS011;10883;51.946;20.140;2022-12-29T15:31:20;21.95;;;10.18;;
21444;SDS011;10883;51.946;20.140;2022-12-29T15:33:51;22.17;;;10.25;;
21444;SDS011;10883;51.946;20.140;2022-12-29T15:36:20;20.73;;;9.10;;
21444;SDS011;10883;51.946;20.140;2022-12-29T15:38:50;22.15;;;9.38;;
21444;SDS011;10883;51.946;20.140;2022-12-29T15:44:26;20.45;;;10.15;;
21444;SDS011;10883;51.946;20.140;2022-12-29T15:47:26;21.67;;;9.93;;
21444;SDS011;10883;51.946;20.140;2022-12-29T15:49:58;17.75;;;8.90;;
21444;SDS011;10883;51.946;20.140;2022-12-29T15:52:28;24.58;;;9.82;;
21444;SDS011;10883;51.946;20.140;2022-12-29T15:54:55;30.25;;;10.88;;
21444;SDS011;10883;51.946;20.140;2022-12-29T15:59:51;35.72;;;16.25;;
21444;SDS011;10883;51.946;20.140;2022-12-29T16:02:19;33.00;;;14.82;;
21444;SDS011;10883;51.946;20.140;2022-12-29T16:04:47;30.00;;;13.77;;
21444;SDS011;10883;51.946;20.140;2022-12-29T16:07:22;25.30;;;12.43;;
21444;SDS011;10883;51.946;20.140;2022-12-29T16:09:54;22.95;;;12.07;;
21444;SDS011;10883;51.946;20.140;2022-12-29T16:12:26;32.95;;;15.82;;
21444;SDS011;10883;51.946;20.140;2022-12-29T16:14:57;18.55;;;9.18;;
21444;SDS011;10883;51.946;20.140;2022-12-29T16:17:29;25.38;;;12.88;;
21444;SDS011;10883;51.946;20.140;2022-12-29T16:19:57;21.35;;;10.82;;
21444;SDS011;10883;51.946;20.140;2022-12-29T16:22:33;21.40;;;10.15;;
21444;SDS011;10883;51.946;20.140;2022-12-29T16:25:04;19.08;;;9.68;;
21444;SDS011;10883;51.946;20.140;2022-12-29T16:27:44;22.90;;;10.45;;
21444;SDS011;10883;51.946;20.140;2022-12-29T16:32:47;18.15;;;9.77;;
21444;SDS011;10883;51.946;20.140;2022-12-29T16:35:19;15.50;;;7.53;;
21444;SDS011;10883;51.946;20.140;2022-12-29T16:43:25;22.35;;;10.07;;
21444;SDS011;10883;51.946;20.140;2022-12-29T16:48:18;15.30;;;8.27;;
21444;SDS011;10883;51.946;20.140;2022-12-29T16:50:44;24.75;;;11.23;;
21444;SDS011;10883;51.946;20.140;2022-12-29T16:53:21;20.92;;;9.60;;
21444;SDS011;10883;51.946;20.140;2022-12-29T16:55:51;32.83;;;15.32;;
21444;SDS011;10883;51.946;20.140;2022-12-29T16:58:22;25.15;;;10.82;;
21444;SDS011;10883;51.946;20.140;2022-12-29T17:00:55;19.33;;;9.05;;
21444;SDS011;10883;51.946;20.140;2022-12-29T17:03:23;19.88;;;10.02;;
21444;SDS011;10883;51.946;20.140;2022-12-29T17:05:56;20.17;;;9.25;;
21444;SDS011;10883;51.946;20.140;2022-12-29T17:08:22;21.60;;;10.63;;
21444;SDS011;10883;51.946;20.140;2022-12-29T17:10:49;19.42;;;9.15;;
21444;SDS011;10883;51.946;20.140;2022-12-29T17:13:34;22.45;;;10.57;;
21444;SDS011;10883;51.946;20.140;2022-12-29T17:16:01;32.90;;;15.48;;
21444;SDS011;10883;51.946;20.140;2022-12-29T17:18:27;22.23;;;10.82;;
21444;SDS011;10883;51.946;20.140;2022-12-29T17:20:53;16.17;;;9.05;;
21444;SDS011;10883;51.946;20.140;2022-12-29T17:23:20;16.35;;;8.48;;
21444;SDS011;10883;51.946;20.140;2022-12-29T17:25:45;25.25;;;12.35;;
21444;SDS011;10883;51.946;20.140;2022-12-29T17:28:30;23.95;;;11.60;;
21444;SDS011;10883;51.946;20.140;2022-12-29T17:31:00;20.42;;;9.52;;
21444;SDS011;10883;51.946;20.140;2022-12-29T17:33:30;15.85;;;9.43;;
21444;SDS011;10883;51.946;20.140;2022-12-29T17:36:00;24.15;;;10.93;;